Christian Reinauer — WDA6472 — position and weather

sailwx.info

Track history (hours):
 
Tides and Currents Weather Stations Pressure Air Temp Water Temp Dewpoint Dewpoint Depression Visibility Wind Speed Wind Dir Waves Ship Positions

Christian Reinauer

Owner: REINAUER TRANSPORTATION CO LLC, STATEN ISLAND, NY. More information available from US FCC via Universal Licensing System and Coast Guard Vessel Documentation Center.

Last reported at 2014-Oct-20 16:10 UTC. Time now 2014-Oct-23 18:37 UTC.
Position N 25°38' W 080°02'.

Length 170 m; draft 7 m.

Type: Ship (hazmat cat B). MMSI: 366832740.

Date/timePositionNaut miles runAvg speedWind from/ knotsBaromVisibWave heightAir tempDewpointWater temp
2014-Oct-20 16:10N 25°38' W 080°02'6 9.2
2014-Oct-20 15:33N 25°43' W 080°02'1010.2
2014-Oct-20 14:33N 25°53' W 080°02'1110.8
2014-Oct-20 13:33N 26°04' W 080°03'1110.6
2014-Oct-20 12:33N 26°15' W 080°02'1010.3
2014-Oct-20 11:33N 26°25' W 080°01'10 9.9
2014-Oct-20 10:33N 26°35' W 079°60'13 9.3
2014-Oct-20 09:11N 26°48' W 079°59'5 8.5
2014-Oct-20 08:33N 26°53' W 079°60'9 9.4
2014-Oct-20 07:33N 27°02' W 079°59'  
2014-Oct-17 21:33N 26°59' W 079°59'1813.5
2014-Oct-17 20:14N 26°41' W 079°58'1014.1
2014-Oct-17 19:33N 26°32' W 079°58'1413.9
2014-Oct-17 18:33N 26°18' W 079°60'1312.7
2014-Oct-17 17:33N 26°06' W 080°05'3 2.3
2014-Oct-17 16:24N 26°05' W 080°07'0 0.0
2014-Oct-17 15:27N 26°05' W 080°07'0 0.0
2014-Oct-17 14:27N 26°05' W 080°07'0 0.0
2014-Oct-17 13:27N 26°05' W 080°07'0 0.0
2014-Oct-17 12:27N 26°05' W 080°07'0 0.0
2014-Oct-17 11:27N 26°05' W 080°07'0 0.0
2014-Oct-17 10:30N 26°05' W 080°07'0 0.0
2014-Oct-17 09:30N 26°05' W 080°07'0 0.0
2014-Oct-17 08:30N 26°05' W 080°07'0 0.0
2014-Oct-17 07:30N 26°05' W 080°07'0 0.0
2014-Oct-17 06:33N 26°05' W 080°07'0 0.0
2014-Oct-17 05:33N 26°05' W 080°07'1 0.9
2014-Oct-17 04:33N 26°06' W 080°06'10 9.7
2014-Oct-17 03:33N 25°57' W 080°02'1413.9
2014-Oct-17 02:33N 25°43' W 080°01'195 5.4
2014-Oct-15 14:29N 27°34' W 082°60'9 9.6
2014-Oct-15 13:33N 27°36' W 082°50'1111.3
2014-Oct-15 12:33N 27°38' W 082°38'1010.4
2014-Oct-15 11:33N 27°47' W 082°32'5 4.8
2014-Oct-15 10:33N 27°52' W 082°33'0 0.1
2014-Oct-15 09:32N 27°52' W 082°33'0 0.0
2014-Oct-15 08:32N 27°52' W 082°33'0 0.0
2014-Oct-15 07:32N 27°52' W 082°33'0 0.0
2014-Oct-15 06:32N 27°52' W 082°33'0 0.0
2014-Oct-15 05:32N 27°52' W 082°33'0 0.0
2014-Oct-15 04:32N 27°52' W 082°33'0 0.0
2014-Oct-15 03:32N 27°52' W 082°33'0 0.0
2014-Oct-15 02:32N 27°52' W 082°33'0 0.0
2014-Oct-15 01:32N 27°52' W 082°33'0 0.0
2014-Oct-15 00:32N 27°52' W 082°33'0 0.0
2014-Oct-14 23:32N 27°52' W 082°33'0 0.0
2014-Oct-14 22:32N 27°52' W 082°33'0 0.0
2014-Oct-14 21:33N 27°52' W 082°33'0 0.0
2014-Oct-14 20:33N 27°52' W 082°33'0 0.4
2014-Oct-14 19:33N 27°52' W 082°33'5 5.1
2014-Oct-14 18:34N 27°47' W 082°31'1010.2
2014-Oct-14 17:33N 27°38' W 082°38'1010.1
2014-Oct-14 16:33N 27°37' W 082°49'6 6.4
2014-Oct-14 15:33N 27°37' W 082°56'0 0.1
2014-Oct-14 13:31N 27°37' W 082°56'0 0.0
2014-Oct-14 12:31N 27°37' W 082°56'0 0.0
2014-Oct-14 11:34N 27°37' W 082°56'0 0.0
2014-Oct-14 10:34N 27°37' W 082°56'0 0.0
2014-Oct-14 09:34N 27°37' W 082°56'0 0.0
2014-Oct-14 08:33N 27°37' W 082°56'0 0.0
2014-Oct-14 07:34N 27°37' W 082°56'0 0.0
2014-Oct-14 06:34N 27°37' W 082°56'0 0.0
2014-Oct-14 05:34N 27°37' W 082°56'0 0.0
2014-Oct-14 04:33N 27°37' W 082°56'0 0.0
2014-Oct-14 03:34N 27°37' W 082°56'0 0.0
2014-Oct-14 02:33N 27°37' W 082°56'0 0.0
2014-Oct-14 01:33N 27°37' W 082°56'0 0.0
2014-Oct-14 00:34N 27°37' W 082°56'0 0.0
2014-Oct-13 23:34N 27°37' W 082°56'0 0.0
2014-Oct-13 22:34N 27°37' W 082°56'0 0.0
2014-Oct-13 21:33N 27°37' W 082°56'3 2.6
2014-Oct-13 20:34N 27°37' W 082°59'  
Track history (hours):
 
Tides and Currents Weather Stations Pressure Air Temp Water Temp Dewpoint Dewpoint Depression Visibility Wind Speed Wind Dir Waves Ship Positions

Christian Reinauer

Owner: REINAUER TRANSPORTATION CO LLC, STATEN ISLAND, NY. More information available from US FCC via Universal Licensing System and Coast Guard Vessel Documentation Center.

Last reported at 2014-Oct-20 16:10 UTC. Time now 2014-Oct-23 18:37 UTC.
Position N 25°38' W 080°02'.

Length 170 m; draft 7 m.

Type: Ship (hazmat cat B). MMSI: 366832740.

Date/timePositionNaut miles runAvg speedWind from/ knotsBaromVisibWave heightAir tempDewpointWater temp
2014-Oct-20 16:10N 25°38' W 080°02'6 9.2
2014-Oct-20 15:33N 25°43' W 080°02'1010.2
2014-Oct-20 14:33N 25°53' W 080°02'1110.8
2014-Oct-20 13:33N 26°04' W 080°03'1110.6
2014-Oct-20 12:33N 26°15' W 080°02'1010.3
2014-Oct-20 11:33N 26°25' W 080°01'10 9.9
2014-Oct-20 10:33N 26°35' W 079°60'13 9.3
2014-Oct-20 09:11N 26°48' W 079°59'5 8.5
2014-Oct-20 08:33N 26°53' W 079°60'9 9.4
2014-Oct-20 07:33N 27°02' W 079°59'  
2014-Oct-17 21:33N 26°59' W 079°59'1813.5
2014-Oct-17 20:14N 26°41' W 079°58'1014.1
2014-Oct-17 19:33N 26°32' W 079°58'1413.9
2014-Oct-17 18:33N 26°18' W 079°60'1312.7
2014-Oct-17 17:33N 26°06' W 080°05'3 2.3
2014-Oct-17 16:24N 26°05' W 080°07'0 0.0
2014-Oct-17 15:27N 26°05' W 080°07'0 0.0
2014-Oct-17 14:27N 26°05' W 080°07'0 0.0
2014-Oct-17 13:27N 26°05' W 080°07'0 0.0
2014-Oct-17 12:27N 26°05' W 080°07'0 0.0
2014-Oct-17 11:27N 26°05' W 080°07'0 0.0
2014-Oct-17 10:30N 26°05' W 080°07'0 0.0
2014-Oct-17 09:30N 26°05' W 080°07'0 0.0
2014-Oct-17 08:30N 26°05' W 080°07'0 0.0
2014-Oct-17 07:30N 26°05' W 080°07'0 0.0
2014-Oct-17 06:33N 26°05' W 080°07'0 0.0
2014-Oct-17 05:33N 26°05' W 080°07'1 0.9
2014-Oct-17 04:33N 26°06' W 080°06'10 9.7
2014-Oct-17 03:33N 25°57' W 080°02'1413.9
2014-Oct-17 02:33N 25°43' W 080°01'195 5.4
2014-Oct-15 14:29N 27°34' W 082°60'9 9.6
2014-Oct-15 13:33N 27°36' W 082°50'1111.3
2014-Oct-15 12:33N 27°38' W 082°38'1010.4
2014-Oct-15 11:33N 27°47' W 082°32'5 4.8
2014-Oct-15 10:33N 27°52' W 082°33'0 0.1
2014-Oct-15 09:32N 27°52' W 082°33'0 0.0
2014-Oct-15 08:32N 27°52' W 082°33'0 0.0
2014-Oct-15 07:32N 27°52' W 082°33'0 0.0
2014-Oct-15 06:32N 27°52' W 082°33'0 0.0
2014-Oct-15 05:32N 27°52' W 082°33'0 0.0
2014-Oct-15 04:32N 27°52' W 082°33'0 0.0
2014-Oct-15 03:32N 27°52' W 082°33'0 0.0
2014-Oct-15 02:32N 27°52' W 082°33'0 0.0
2014-Oct-15 01:32N 27°52' W 082°33'0 0.0
2014-Oct-15 00:32N 27°52' W 082°33'0 0.0
2014-Oct-14 23:32N 27°52' W 082°33'0 0.0
2014-Oct-14 22:32N 27°52' W 082°33'0 0.0
2014-Oct-14 21:33N 27°52' W 082°33'0 0.0
2014-Oct-14 20:33N 27°52' W 082°33'0 0.4
2014-Oct-14 19:33N 27°52' W 082°33'5 5.1
2014-Oct-14 18:34N 27°47' W 082°31'1010.2
2014-Oct-14 17:33N 27°38' W 082°38'1010.1
2014-Oct-14 16:33N 27°37' W 082°49'6 6.4
2014-Oct-14 15:33N 27°37' W 082°56'0 0.1
2014-Oct-14 13:31N 27°37' W 082°56'0 0.0
2014-Oct-14 12:31N 27°37' W 082°56'0 0.0
2014-Oct-14 11:34N 27°37' W 082°56'0 0.0
2014-Oct-14 10:34N 27°37' W 082°56'0 0.0
2014-Oct-14 09:34N 27°37' W 082°56'0 0.0
2014-Oct-14 08:33N 27°37' W 082°56'0 0.0
2014-Oct-14 07:34N 27°37' W 082°56'0 0.0
2014-Oct-14 06:34N 27°37' W 082°56'0 0.0
2014-Oct-14 05:34N 27°37' W 082°56'0 0.0
2014-Oct-14 04:33N 27°37' W 082°56'0 0.0
2014-Oct-14 03:34N 27°37' W 082°56'0 0.0
2014-Oct-14 02:33N 27°37' W 082°56'0 0.0
2014-Oct-14 01:33N 27°37' W 082°56'0 0.0
2014-Oct-14 00:34N 27°37' W 082°56'0 0.0
2014-Oct-13 23:34N 27°37' W 082°56'0 0.0
2014-Oct-13 22:34N 27°37' W 082°56'0 0.0
2014-Oct-13 21:33N 27°37' W 082°56'3 2.6
2014-Oct-13 20:34N 27°37' W 082°59'  

Dump ship's entire track history